sensor_id;sensor_type;location;lat;lon;timestamp;temperature;humidity
55331;DHT22;58851;42.984;20.336;2023-12-20T00:00:24;0.50;6451.20
55331;DHT22;58851;42.984;20.336;2023-12-20T00:02:49;0.50;6451.20
55331;DHT22;58851;42.984;20.336;2023-12-20T00:05:15;0.50;6451.20
55331;DHT22;58851;42.984;20.336;2023-12-20T00:07:41;0.40;6451.20
55331;DHT22;58851;42.984;20.336;2023-12-20T00:10:07;0.50;6451.20
55331;DHT22;58851;42.984;20.336;2023-12-20T00:12:33;0.50;6451.20
55331;DHT22;58851;42.984;20.336;2023-12-20T00:14:59;0.50;6451.20
55331;DHT22;58851;42.984;20.336;2023-12-20T00:17:25;0.40;6451.20
55331;DHT22;58851;42.984;20.336;2023-12-20T00:19:50;0.50;6451.20
55331;DHT22;58851;42.984;20.336;2023-12-20T00:22:16;0.20;6451.20
55331;DHT22;58851;42.984;20.336;2023-12-20T00:24:42;0.30;6451.20
55331;DHT22;58851;42.984;20.336;2023-12-20T00:27:08;0.30;6451.20
55331;DHT22;58851;42.984;20.336;2023-12-20T00:29:34;0.30;6451.20
55331;DHT22;58851;42.984;20.336;2023-12-20T00:31:59;0.30;6451.20
55331;DHT22;58851;42.984;20.336;2023-12-20T00:34:25;0.30;6451.20
55331;DHT22;58851;42.984;20.336;2023-12-20T00:36:51;0.30;6451.20
55331;DHT22;58851;42.984;20.336;2023-12-20T00:39:17;0.30;6451.20
55331;DHT22;58851;42.984;20.336;2023-12-20T00:41:43;0.30;6451.20
55331;DHT22;58851;42.984;20.336;2023-12-20T00:44:09;0.20;6451.20
55331;DHT22;58851;42.984;20.336;2023-12-20T00:46:34;0.00;6451.20
55331;DHT22;58851;42.984;20.336;2023-12-20T00:49:00;0.00;6451.20
55331;DHT22;58851;42.984;20.336;2023-12-20T00:51:26;0.10;6451.20
55331;DHT22;58851;42.984;20.336;2023-12-20T00:53:52;0.20;6451.20
55331;DHT22;58851;42.984;20.336;2023-12-20T00:56:20;0.10;6451.20
55331;DHT22;58851;42.984;20.336;2023-12-20T00:58:46;0.20;6451.20
55331;DHT22;58851;42.984;20.336;2023-12-20T01:01:12;0.20;6451.20
55331;DHT22;58851;42.984;20.336;2023-12-20T01:03:38;0.30;6451.20
55331;DHT22;58851;42.984;20.336;2023-12-20T01:06:04;0.30;6451.20
55331;DHT22;58851;42.984;20.336;2023-12-20T01:08:31;0.30;6451.20
55331;DHT22;58851;42.984;20.336;2023-12-20T01:10:56;0.30;6451.20
55331;DHT22;58851;42.984;20.336;2023-12-20T01:13:22;0.20;6451.20
55331;DHT22;58851;42.984;20.336;2023-12-20T01:15:48;0.10;6451.20
55331;DHT22;58851;42.984;20.336;2023-12-20T01:18:14;12.90;6451.20
55331;DHT22;58851;42.984;20.336;2023-12-20T01:20:40;13.10;6451.20
55331;DHT22;58851;42.984;20.336;2023-12-20T01:23:06;13.10;6451.20
55331;DHT22;58851;42.984;20.336;2023-12-20T01:25:32;13.20;6451.20
55331;DHT22;58851;42.984;20.336;2023-12-20T01:27:58;13.30;6451.20
55331;DHT22;58851;42.984;20.336;2023-12-20T01:30:23;13.30;6451.20
55331;DHT22;58851;42.984;20.336;2023-12-20T01:32:49;13.30;6451.20
55331;DHT22;58851;42.984;20.336;2023-12-20T01:35:15;13.20;6451.20
55331;DHT22;58851;42.984;20.336;2023-12-20T01:37:41;13.20;6451.20
55331;DHT22;58851;42.984;20.336;2023-12-20T01:40:07;13.20;6451.20
55331;DHT22;58851;42.984;20.336;2023-12-20T01:42:33;13.20;6451.20
55331;DHT22;58851;42.984;20.336;2023-12-20T01:44:59;13.30;6451.20
55331;DHT22;58851;42.984;20.336;2023-12-20T01:47:25;13.30;6451.20
55331;DHT22;58851;42.984;20.336;2023-12-20T01:49:52;13.30;6451.20
55331;DHT22;58851;42.984;20.336;2023-12-20T01:52:19;13.30;6451.20
55331;DHT22;58851;42.984;20.336;2023-12-20T01:54:45;13.30;6451.20
55331;DHT22;58851;42.984;20.336;2023-12-20T01:57:12;13.30;6451.20
55331;DHT22;58851;42.984;20.336;2023-12-20T01:59:39;13.30;6451.20
55331;DHT22;58851;42.984;20.336;2023-12-20T02:02:05;13.30;6451.20
55331;DHT22;58851;42.984;20.336;2023-12-20T02:04:32;13.40;6451.20
55331;DHT22;58851;42.984;20.336;2023-12-20T02:06:59;13.40;6451.20
55331;DHT22;58851;42.984;20.336;2023-12-20T02:09:25;13.50;6451.20
55331;DHT22;58851;42.984;20.336;2023-12-20T02:11:51;13.40;6451.20
55331;DHT22;58851;42.984;20.336;2023-12-20T02:14:17;13.40;6451.20
55331;DHT22;58851;42.984;20.336;2023-12-20T02:16:42;13.30;6451.20
55331;DHT22;58851;42.984;20.336;2023-12-20T02:19:13;13.30;6451.20
55331;DHT22;58851;42.984;20.336;2023-12-20T02:21:39;13.30;6451.20
55331;DHT22;58851;42.984;20.336;2023-12-20T02:24:05;13.30;6451.20
55331;DHT22;58851;42.984;20.336;2023-12-20T02:26:32;13.40;6451.20
55331;DHT22;58851;42.984;20.336;2023-12-20T02:28:59;13.40;6451.20
55331;DHT22;58851;42.984;20.336;2023-12-20T02:31:25;13.30;6451.20
55331;DHT22;58851;42.984;20.336;2023-12-20T02:33:51;13.30;6451.20
55331;DHT22;58851;42.984;20.336;2023-12-20T02:36:17;13.30;6451.20
55331;DHT22;58851;42.984;20.336;2023-12-20T02:38:43;13.30;6451.20
55331;DHT22;58851;42.984;20.336;2023-12-20T02:41:08;13.40;6451.20
55331;DHT22;58851;42.984;20.336;2023-12-20T02:43:34;13.40;6451.20
55331;DHT22;58851;42.984;20.336;2023-12-20T02:46:00;13.50;6451.20
55331;DHT22;58851;42.984;20.336;2023-12-20T02:48:26;13.60;6451.20
55331;DHT22;58851;42.984;20.336;2023-12-20T02:50:51;13.60;6451.20
55331;DHT22;58851;42.984;20.336;2023-12-20T02:53:17;13.60;6451.20
55331;DHT22;58851;42.984;20.336;2023-12-20T02:55:43;13.60;6451.20
55331;DHT22;58851;42.984;20.336;2023-12-20T02:58:09;13.60;6451.20
55331;DHT22;58851;42.984;20.336;2023-12-20T03:00:35;13.50;6451.20
55331;DHT22;58851;42.984;20.336;2023-12-20T03:03:00;13.50;6451.20
55331;DHT22;58851;42.984;20.336;2023-12-20T03:05:26;13.50;6451.20
55331;DHT22;58851;42.984;20.336;2023-12-20T03:07:52;13.50;6451.20
55331;DHT22;58851;42.984;20.336;2023-12-20T03:10:19;13.50;6451.20
55331;DHT22;58851;42.984;20.336;2023-12-20T03:12:44;13.50;6451.20
55331;DHT22;58851;42.984;20.336;2023-12-20T03:15:10;13.50;6451.20
55331;DHT22;58851;42.984;20.336;2023-12-20T03:17:36;13.60;6451.20
55331;DHT22;58851;42.984;20.336;2023-12-20T03:20:02;13.70;6451.20
55331;DHT22;58851;42.984;20.336;2023-12-20T03:22:28;38.50;6451.20
55331;DHT22;58851;42.984;20.336;2023-12-20T03:24:54;38.40;6451.20
55331;DHT22;58851;42.984;20.336;2023-12-20T03:27:20;13.70;6451.20
55331;DHT22;58851;42.984;20.336;2023-12-20T03:29:46;13.60;6451.20
55331;DHT22;58851;42.984;20.336;2023-12-20T03:32:12;13.60;6451.20
55331;DHT22;58851;42.984;20.336;2023-12-20T03:34:38;13.60;6451.20
55331;DHT22;58851;42.984;20.336;2023-12-20T03:37:04;13.60;6451.20
55331;DHT22;58851;42.984;20.336;2023-12-20T03:39:29;13.60;6451.20
55331;DHT22;58851;42.984;20.336;2023-12-20T03:41:55;13.60;6451.20
55331;DHT22;58851;42.984;20.336;2023-12-20T03:44:21;13.50;6451.20
55331;DHT22;58851;42.984;20.336;2023-12-20T03:46:47;13.50;6451.20
55331;DHT22;58851;42.984;20.336;2023-12-20T03:49:14;13.60;6451.20
55331;DHT22;58851;42.984;20.336;2023-12-20T03:51:40;13.60;6451.20
55331;DHT22;58851;42.984;20.336;2023-12-20T03:54:07;13.50;6451.20
55331;DHT22;58851;42.984;20.336;2023-12-20T03:56:33;13.50;6451.20
55331;DHT22;58851;42.984;20.336;2023-12-20T03:58:59;13.50;6451.20
55331;DHT22;58851;42.984;20.336;2023-12-20T04:01:25;13.50;6451.20
55331;DHT22;58851;42.984;20.336;2023-12-20T04:03:51;13.50;6451.20
55331;DHT22;58851;42.984;20.336;2023-12-20T04:06:18;13.50;6451.20
55331;DHT22;58851;42.984;20.336;2023-12-20T04:08:44;13.50;6451.20
55331;DHT22;58851;42.984;20.336;2023-12-20T04:11:09;13.50;6451.20
55331;DHT22;58851;42.984;20.336;2023-12-20T04:13:35;13.50;6451.20
55331;DHT22;58851;42.984;20.336;2023-12-20T04:16:01;13.50;6451.20
55331;DHT22;58851;42.984;20.336;2023-12-20T04:18:27;13.40;6451.20
55331;DHT22;58851;42.984;20.336;2023-12-20T04:20:53;13.50;6451.20
55331;DHT22;58851;42.984;20.336;2023-12-20T04:23:19;13.50;6451.20
55331;DHT22;58851;42.984;20.336;2023-12-20T04:25:45;13.50;6451.20
55331;DHT22;58851;42.984;20.336;2023-12-20T04:28:11;13.50;6451.20
55331;DHT22;58851;42.984;20.336;2023-12-20T04:30:36;13.50;6451.20
55331;DHT22;58851;42.984;20.336;2023-12-20T04:33:02;13.50;6451.20
55331;DHT22;58851;42.984;20.336;2023-12-20T04:35:28;13.40;6451.20
55331;DHT22;58851;42.984;20.336;2023-12-20T04:37:54;13.40;6451.20
55331;DHT22;58851;42.984;20.336;2023-12-20T04:40:20;13.40;6451.20
55331;DHT22;58851;42.984;20.336;2023-12-20T04:42:45;13.50;6451.20
55331;DHT22;58851;42.984;20.336;2023-12-20T04:45:11;13.50;6451.20
55331;DHT22;58851;42.984;20.336;2023-12-20T04:47:39;13.40;6451.20
55331;DHT22;58851;42.984;20.336;2023-12-20T04:50:05;13.40;6451.20
55331;DHT22;58851;42.984;20.336;2023-12-20T04:52:31;13.40;128.00
55331;DHT22;58851;42.984;20.336;2023-12-20T04:54:57;13.40;128.00
55331;DHT22;58851;42.984;20.336;2023-12-20T04:57:23;13.40;128.00
55331;DHT22;58851;42.984;20.336;2023-12-20T04:59:48;13.40;128.00
55331;DHT22;58851;42.984;20.336;2023-12-20T05:02:14;13.40;128.00
55331;DHT22;58851;42.984;20.336;2023-12-20T05:04:40;13.50;6528.00
55331;DHT22;58851;42.984;20.336;2023-12-20T05:07:06;13.50;6451.20
55331;DHT22;58851;42.984;20.336;2023-12-20T05:09:32;13.60;6451.20
55331;DHT22;58851;42.984;20.336;2023-12-20T05:11:58;13.60;6451.20
55331;DHT22;58851;42.984;20.336;2023-12-20T05:14:25;13.60;6451.20
55331;DHT22;58851;42.984;20.336;2023-12-20T05:16:51;13.70;6451.20
55331;DHT22;58851;42.984;20.336;2023-12-20T05:19:17;13.60;6451.20
55331;DHT22;58851;42.984;20.336;2023-12-20T05:21:42;13.60;6451.20
55331;DHT22;58851;42.984;20.336;2023-12-20T05:24:08;13.60;6451.20
55331;DHT22;58851;42.984;20.336;2023-12-20T05:26:34;13.50;6451.20
55331;DHT22;58851;42.984;20.336;2023-12-20T05:29:05;13.50;128.00
55331;DHT22;58851;42.984;20.336;2023-12-20T05:31:31;13.60;128.00
55331;DHT22;58851;42.984;20.336;2023-12-20T05:33:57;13.60;6476.80
55331;DHT22;58851;42.984;20.336;2023-12-20T05:36:23;13.60;153.60
55331;DHT22;58851;42.984;20.336;2023-12-20T05:38:49;13.50;204.80
55331;DHT22;58851;42.984;20.336;2023-12-20T05:41:16;13.50;128.00
55331;DHT22;58851;42.984;20.336;2023-12-20T05:43:41;13.50;332.80
55331;DHT22;58851;42.984;20.336;2023-12-20T05:46:09;13.60;281.60
55331;DHT22;58851;42.984;20.336;2023-12-20T05:48:35;13.50;179.20
55331;DHT22;58851;42.984;20.336;2023-12-20T05:51:01;13.50;230.40
55331;DHT22;58851;42.984;20.336;2023-12-20T05:53:26;13.70;6451.20
55331;DHT22;58851;42.984;20.336;2023-12-20T05:55:52;38.40;6451.20
55331;DHT22;58851;42.984;20.336;2023-12-20T05:58:18;38.40;6451.20
55331;DHT22;58851;42.984;20.336;2023-12-20T06:00:44;38.40;6451.20
55331;DHT22;58851;42.984;20.336;2023-12-20T06:03:10;38.40;6451.20
55331;DHT22;58851;42.984;20.336;2023-12-20T06:05:35;38.40;6451.20
55331;DHT22;58851;42.984;20.336;2023-12-20T06:08:01;38.40;6451.20
55331;DHT22;58851;42.984;20.336;2023-12-20T06:10:28;38.40;6451.20
55331;DHT22;58851;42.984;20.336;2023-12-20T06:12:54;13.70;6451.20
55331;DHT22;58851;42.984;20.336;2023-12-20T06:15:22;38.40;6451.20
55331;DHT22;58851;42.984;20.336;2023-12-20T06:17:47;38.40;6451.20
55331;DHT22;58851;42.984;20.336;2023-12-20T06:20:13;13.70;6451.20
55331;DHT22;58851;42.984;20.336;2023-12-20T06:22:39;13.70;6451.20
55331;DHT22;58851;42.984;20.336;2023-12-20T06:25:05;13.70;6451.20
55331;DHT22;58851;42.984;20.336;2023-12-20T06:27:32;13.70;6451.20
55331;DHT22;58851;42.984;20.336;2023-12-20T06:29:58;13.60;6451.20
55331;DHT22;58851;42.984;20.336;2023-12-20T06:32:24;13.60;6476.80
55331;DHT22;58851;42.984;20.336;2023-12-20T06:34:50;13.60;128.00
55331;DHT22;58851;42.984;20.336;2023-12-20T06:37:16;13.60;6451.20
55331;DHT22;58851;42.984;20.336;2023-12-20T06:39:42;13.60;6451.20
55331;DHT22;58851;42.984;20.336;2023-12-20T06:42:07;13.60;6528.00
55331;DHT22;58851;42.984;20.336;2023-12-20T06:44:33;13.60;6451.20
55331;DHT22;58851;42.984;20.336;2023-12-20T06:46:59;13.60;6451.20
55331;DHT22;58851;42.984;20.336;2023-12-20T06:49:25;13.60;6451.20
55331;DHT22;58851;42.984;20.336;2023-12-20T06:51:51;13.70;6451.20
55331;DHT22;58851;42.984;20.336;2023-12-20T06:54:17;13.60;6476.80
55331;DHT22;58851;42.984;20.336;2023-12-20T06:56:43;13.50;128.00
55331;DHT22;58851;42.984;20.336;2023-12-20T06:59:08;13.60;6451.20
55331;DHT22;58851;42.984;20.336;2023-12-20T07:01:34;13.50;128.00
55331;DHT22;58851;42.984;20.336;2023-12-20T07:04:00;13.50;307.20
55331;DHT22;58851;42.984;20.336;2023-12-20T07:06:26;13.50;128.00
55331;DHT22;58851;42.984;20.336;2023-12-20T07:08:52;13.70;6451.20
55331;DHT22;58851;42.984;20.336;2023-12-20T07:11:18;13.70;6451.20
55331;DHT22;58851;42.984;20.336;2023-12-20T07:13:44;13.60;6451.20
55331;DHT22;58851;42.984;20.336;2023-12-20T07:16:10;13.50;6502.40
55331;DHT22;58851;42.984;20.336;2023-12-20T07:18:35;13.40;128.00
55331;DHT22;58851;42.984;20.336;2023-12-20T07:21:01;13.50;6451.20
55331;DHT22;58851;42.984;20.336;2023-12-20T07:23:27;13.40;128.00
55331;DHT22;58851;42.984;20.336;2023-12-20T07:25:53;13.40;128.00
55331;DHT22;58851;42.984;20.336;2023-12-20T07:28:19;13.30;332.80
55331;DHT22;58851;42.984;20.336;2023-12-20T07:30:44;13.20;332.80
55331;DHT22;58851;42.984;20.336;2023-12-20T07:33:10;13.10;512.00
55331;DHT22;58851;42.984;20.336;2023-12-20T07:35:38;13.10;6451.20
55331;DHT22;58851;42.984;20.336;2023-12-20T07:38:04;13.00;512.00
55331;DHT22;58851;42.984;20.336;2023-12-20T07:40:30;13.00;6451.20
55331;DHT22;58851;42.984;20.336;2023-12-20T07:42:55;13.00;6451.20
55331;DHT22;58851;42.984;20.336;2023-12-20T07:45:21;12.90;6451.20
55331;DHT22;58851;42.984;20.336;2023-12-20T07:47:47;0.00;6451.20
55331;DHT22;58851;42.984;20.336;2023-12-20T07:50:14;0.10;6451.20
55331;DHT22;58851;42.984;20.336;2023-12-20T07:52:40;0.30;486.40
55331;DHT22;58851;42.984;20.336;2023-12-20T07:55:06;0.40;435.20
55331;DHT22;58851;42.984;20.336;2023-12-20T07:57:32;0.50;460.80
55331;DHT22;58851;42.984;20.336;2023-12-20T07:59:58;0.60;128.00
55331;DHT22;58851;42.984;20.336;2023-12-20T08:02:24;0.70;256.00
55331;DHT22;58851;42.984;20.336;2023-12-20T08:04:49;0.70;256.00
55331;DHT22;58851;42.984;20.336;2023-12-20T08:07:15;0.70;435.20
55331;DHT22;58851;42.984;20.336;2023-12-20T08:09:41;0.80;153.60
55331;DHT22;58851;42.984;20.336;2023-12-20T08:12:08;0.80;230.40
55331;DHT22;58851;42.984;20.336;2023-12-20T08:14:35;25.60;128.00
55331;DHT22;58851;42.984;20.336;2023-12-20T08:17:00;25.70;6451.20
55331;DHT22;58851;42.984;20.336;2023-12-20T08:19:26;25.80;6451.20
55331;DHT22;58851;42.984;20.336;2023-12-20T08:21:52;25.80;6451.20
55331;DHT22;58851;42.984;20.336;2023-12-20T08:24:18;25.90;6451.20
55331;DHT22;58851;42.984;20.336;2023-12-20T08:26:43;26.10;6451.20
55331;DHT22;58851;42.984;20.336;2023-12-20T08:29:09;26.20;6451.20
55331;DHT22;58851;42.984;20.336;2023-12-20T08:31:35;26.30;6451.20
55331;DHT22;58851;42.984;20.336;2023-12-20T08:34:01;26.30;6451.20
55331;DHT22;58851;42.984;20.336;2023-12-20T08:36:26;26.30;6451.20
55331;DHT22;58851;42.984;20.336;2023-12-20T08:38:52;26.20;6451.20
55331;DHT22;58851;42.984;20.336;2023-12-20T08:41:18;26.20;6451.20
55331;DHT22;58851;42.984;20.336;2023-12-20T08:43:44;26.30;6451.20
55331;DHT22;58851;42.984;20.336;2023-12-20T08:46:10;26.40;6451.20
55331;DHT22;58851;42.984;20.336;2023-12-20T08:48:37;26.50;6451.20
55331;DHT22;58851;42.984;20.336;2023-12-20T08:51:03;51.20;6476.80
55331;DHT22;58851;42.984;20.336;2023-12-20T08:53:29;51.40;6476.80
55331;DHT22;58851;42.984;20.336;2023-12-20T08:55:55;51.40;6476.80
55331;DHT22;58851;42.984;20.336;2023-12-20T08:58:23;51.50;6476.80
55331;DHT22;58851;42.984;20.336;2023-12-20T09:00:49;51.60;6476.80
55331;DHT22;58851;42.984;20.336;2023-12-20T09:03:15;51.70;6476.80
55331;DHT22;58851;42.984;20.336;2023-12-20T09:05:40;51.70;6476.80
55331;DHT22;58851;42.984;20.336;2023-12-20T09:08:06;51.90;6476.80
55331;DHT22;58851;42.984;20.336;2023-12-20T09:10:35;51.90;6476.80
55331;DHT22;58851;42.984;20.336;2023-12-20T09:13:01;52.00;6476.80
55331;DHT22;58851;42.984;20.336;2023-12-20T09:15:27;52.10;6476.80
55331;DHT22;58851;42.984;20.336;2023-12-20T09:17:54;76.80;6476.80
55331;DHT22;58851;42.984;20.336;2023-12-20T09:20:20;76.90;6476.80
55331;DHT22;58851;42.984;20.336;2023-12-20T09:22:46;76.90;6476.80
55331;DHT22;58851;42.984;20.336;2023-12-20T09:25:12;77.00;6476.80
55331;DHT22;58851;42.984;20.336;2023-12-20T09:27:39;77.00;6476.80
55331;DHT22;58851;42.984;20.336;2023-12-20T09:30:05;77.20;6476.80
55331;DHT22;58851;42.984;20.336;2023-12-20T09:32:31;77.20;6476.80
55331;DHT22;58851;42.984;20.336;2023-12-20T09:34:57;77.20;6476.80
55331;DHT22;58851;42.984;20.336;2023-12-20T09:37:27;77.20;6476.80
55331;DHT22;58851;42.984;20.336;2023-12-20T09:39:54;77.30;6476.80
55331;DHT22;58851;42.984;20.336;2023-12-20T09:42:47;77.40;6476.80
55331;DHT22;58851;42.984;20.336;2023-12-20T09:45:15;77.50;6476.80
55331;DHT22;58851;42.984;20.336;2023-12-20T09:47:43;77.70;6476.80
55331;DHT22;58851;42.984;20.336;2023-12-20T09:50:09;77.70;6476.80
55331;DHT22;58851;42.984;20.336;2023-12-20T09:52:36;102.40;6476.80
55331;DHT22;58851;42.984;20.336;2023-12-20T09:55:05;102.40;6476.80
55331;DHT22;58851;42.984;20.336;2023-12-20T09:57:33;102.60;6476.80
55331;DHT22;58851;42.984;20.336;2023-12-20T09:59:59;102.60;6476.80
55331;DHT22;58851;42.984;20.336;2023-12-20T10:02:25;102.50;6476.80
55331;DHT22;58851;42.984;20.336;2023-12-20T10:04:54;77.70;6476.80
55331;DHT22;58851;42.984;20.336;2023-12-20T10:07:19;102.40;6476.80
55331;DHT22;58851;42.984;20.336;2023-12-20T10:09:47;77.70;6476.80
55331;DHT22;58851;42.984;20.336;2023-12-20T10:12:13;102.50;6476.80
55331;DHT22;58851;42.984;20.336;2023-12-20T10:14:41;102.70;6476.80
55331;DHT22;58851;42.984;20.336;2023-12-20T10:17:07;102.80;6476.80
55331;DHT22;58851;42.984;20.336;2023-12-20T10:19:33;102.90;6476.80
55331;DHT22;58851;42.984;20.336;2023-12-20T10:21:59;102.80;6476.80
55331;DHT22;58851;42.984;20.336;2023-12-20T10:24:28;103.10;6476.80
55331;DHT22;58851;42.984;20.336;2023-12-20T10:27:04;103.20;6476.80
55331;DHT22;58851;42.984;20.336;2023-12-20T10:29:36;103.20;6502.40
55331;DHT22;58851;42.984;20.336;2023-12-20T10:32:21;103.20;128.00
55331;DHT22;58851;42.984;20.336;2023-12-20T10:34:47;128.00;281.60
55331;DHT22;58851;42.984;20.336;2023-12-20T10:37:13;128.20;128.00
55331;DHT22;58851;42.984;20.336;2023-12-20T10:39:39;128.40;128.00
55331;DHT22;58851;42.984;20.336;2023-12-20T10:42:08;128.50;384.00
55331;DHT22;58851;42.984;20.336;2023-12-20T10:44:34;128.60;384.00
55331;DHT22;58851;42.984;20.336;2023-12-20T10:47:00;128.80;384.00
55331;DHT22;58851;42.984;20.336;2023-12-20T10:49:26;128.80;460.80
55331;DHT22;58851;42.984;20.336;2023-12-20T10:51:54;128.90;6502.40
55331;DHT22;58851;42.984;20.336;2023-12-20T10:54:22;128.90;512.00
55331;DHT22;58851;42.984;20.336;2023-12-20T10:56:50;153.70;6502.40
55331;DHT22;58851;42.984;20.336;2023-12-20T10:59:19;153.70;307.20
55331;DHT22;58851;42.984;20.336;2023-12-20T11:01:47;154.10;6502.40
55331;DHT22;58851;42.984;20.336;2023-12-20T11:04:18;154.30;6502.40
55331;DHT22;58851;42.984;20.336;2023-12-20T11:07:08;154.50;6502.40
55331;DHT22;58851;42.984;20.336;2023-12-20T11:09:55;179.20;6502.40
55331;DHT22;58851;42.984;20.336;2023-12-20T11:15:29;154.20;6502.40
55331;DHT22;58851;42.984;20.336;2023-12-20T11:17:56;154.30;6502.40
55331;DHT22;58851;42.984;20.336;2023-12-20T11:20:40;179.30;6502.40
55331;DHT22;58851;42.984;20.336;2023-12-20T11:23:10;179.30;6502.40
55331;DHT22;58851;42.984;20.336;2023-12-20T11:25:52;179.50;6502.40
55331;DHT22;58851;42.984;20.336;2023-12-20T11:28:22;179.30;6502.40
55331;DHT22;58851;42.984;20.336;2023-12-20T11:30:51;179.30;6502.40
55331;DHT22;58851;42.984;20.336;2023-12-20T11:33:25;179.30;6502.40
55331;DHT22;58851;42.984;20.336;2023-12-20T11:35:51;154.50;6502.40
55331;DHT22;58851;42.984;20.336;2023-12-20T11:38:20;179.30;6502.40
55331;DHT22;58851;42.984;20.336;2023-12-20T11:40:48;179.40;6502.40
55331;DHT22;58851;42.984;20.336;2023-12-20T11:43:35;179.50;6502.40
55331;DHT22;58851;42.984;20.336;2023-12-20T11:46:10;179.50;6502.40
55331;DHT22;58851;42.984;20.336;2023-12-20T11:48:38;179.60;6502.40
55331;DHT22;58851;42.984;20.336;2023-12-20T11:51:14;179.60;6502.40
55331;DHT22;58851;42.984;20.336;2023-12-20T11:53:43;179.70;6502.40
55331;DHT22;58851;42.984;20.336;2023-12-20T11:56:10;179.80;6502.40
55331;DHT22;58851;42.984;20.336;2023-12-20T11:58:36;179.70;6502.40
55331;DHT22;58851;42.984;20.336;2023-12-20T12:01:02;179.70;6502.40
55331;DHT22;58851;42.984;20.336;2023-12-20T12:03:28;179.70;6502.40
55331;DHT22;58851;42.984;20.336;2023-12-20T12:05:54;179.70;6502.40
55331;DHT22;58851;42.984;20.336;2023-12-20T12:08:20;179.80;6502.40
55331;DHT22;58851;42.984;20.336;2023-12-20T12:10:46;179.80;6502.40
55331;DHT22;58851;42.984;20.336;2023-12-20T12:13:12;180.00;6502.40
55331;DHT22;58851;42.984;20.336;2023-12-20T12:15:39;204.80;6502.40
55331;DHT22;58851;42.984;20.336;2023-12-20T12:18:07;205.00;6502.40
55331;DHT22;58851;42.984;20.336;2023-12-20T12:20:34;205.30;6502.40
55331;DHT22;58851;42.984;20.336;2023-12-20T12:23:04;205.40;6502.40
55331;DHT22;58851;42.984;20.336;2023-12-20T12:25:34;205.40;6502.40
55331;DHT22;58851;42.984;20.336;2023-12-20T12:28:01;205.50;6502.40
55331;DHT22;58851;42.984;20.336;2023-12-20T12:30:27;205.60;6502.40
55331;DHT22;58851;42.984;20.336;2023-12-20T12:32:53;205.70;6502.40
55331;DHT22;58851;42.984;20.336;2023-12-20T12:35:20;205.70;6502.40
55331;DHT22;58851;42.984;20.336;2023-12-20T12:37:46;205.70;6502.40
55331;DHT22;58851;42.984;20.336;2023-12-20T12:40:13;230.40;6502.40
55331;DHT22;58851;42.984;20.336;2023-12-20T12:42:40;230.40;6502.40
55331;DHT22;58851;42.984;20.336;2023-12-20T12:45:07;205.60;6502.40
55331;DHT22;58851;42.984;20.336;2023-12-20T12:47:34;205.30;6502.40
55331;DHT22;58851;42.984;20.336;2023-12-20T12:50:00;205.30;6502.40
55331;DHT22;58851;42.984;20.336;2023-12-20T12:52:26;205.20;6502.40
55331;DHT22;58851;42.984;20.336;2023-12-20T12:54:53;205.00;6502.40
55331;DHT22;58851;42.984;20.336;2023-12-20T12:57:19;205.10;6502.40
55331;DHT22;58851;42.984;20.336;2023-12-20T12:59:45;204.90;6502.40
55331;DHT22;58851;42.984;20.336;2023-12-20T13:02:12;204.80;6502.40
55331;DHT22;58851;42.984;20.336;2023-12-20T13:04:42;180.10;6502.40
55331;DHT22;58851;42.984;20.336;2023-12-20T13:07:09;204.80;6502.40
55331;DHT22;58851;42.984;20.336;2023-12-20T13:09:39;180.00;6502.40
55331;DHT22;58851;42.984;20.336;2023-12-20T13:12:06;179.70;6502.40
55331;DHT22;58851;42.984;20.336;2023-12-20T13:14:34;179.70;6502.40
55331;DHT22;58851;42.984;20.336;2023-12-20T13:17:03;179.60;6502.40
55331;DHT22;58851;42.984;20.336;2023-12-20T13:19:30;179.60;6502.40
55331;DHT22;58851;42.984;20.336;2023-12-20T13:21:56;179.50;435.20
55331;DHT22;58851;42.984;20.336;2023-12-20T13:24:23;179.30;6502.40
55331;DHT22;58851;42.984;20.336;2023-12-20T13:26:49;179.30;6502.40
55331;DHT22;58851;42.984;20.336;2023-12-20T13:29:15;179.30;6502.40
55331;DHT22;58851;42.984;20.336;2023-12-20T13:31:41;179.40;6502.40
55331;DHT22;58851;42.984;20.336;2023-12-20T13:34:07;179.60;6502.40
55331;DHT22;58851;42.984;20.336;2023-12-20T13:36:33;179.60;6502.40
55331;DHT22;58851;42.984;20.336;2023-12-20T13:38:59;179.60;6502.40
55331;DHT22;58851;42.984;20.336;2023-12-20T13:41:24;179.70;6502.40
55331;DHT22;58851;42.984;20.336;2023-12-20T13:43:50;179.60;6502.40
55331;DHT22;58851;42.984;20.336;2023-12-20T13:46:16;179.50;563.20
55331;DHT22;58851;42.984;20.336;2023-12-20T13:48:42;179.40;6502.40
55331;DHT22;58851;42.984;20.336;2023-12-20T13:51:08;179.40;6502.40
55331;DHT22;58851;42.984;20.336;2023-12-20T13:53:34;179.40;6502.40
55331;DHT22;58851;42.984;20.336;2023-12-20T13:56:00;179.30;6502.40
55331;DHT22;58851;42.984;20.336;2023-12-20T13:58:26;179.30;6502.40
55331;DHT22;58851;42.984;20.336;2023-12-20T14:00:52;179.30;6502.40
55331;DHT22;58851;42.984;20.336;2023-12-20T14:03:18;154.50;6502.40
55331;DHT22;58851;42.984;20.336;2023-12-20T14:05:45;179.20;6502.40
55331;DHT22;58851;42.984;20.336;2023-12-20T14:08:11;154.40;6502.40
55331;DHT22;58851;42.984;20.336;2023-12-20T14:10:38;154.30;6502.40
55331;DHT22;58851;42.984;20.336;2023-12-20T14:13:04;154.30;6502.40
55331;DHT22;58851;42.984;20.336;2023-12-20T14:15:31;154.10;6502.40
55331;DHT22;58851;42.984;20.336;2023-12-20T14:18:05;154.10;6502.40
55331;DHT22;58851;42.984;20.336;2023-12-20T14:20:32;154.10;6502.40
55331;DHT22;58851;42.984;20.336;2023-12-20T14:23:03;153.90;6502.40
55331;DHT22;58851;42.984;20.336;2023-12-20T14:25:29;153.80;6502.40
55331;DHT22;58851;42.984;20.336;2023-12-20T14:27:56;153.70;6502.40
55331;DHT22;58851;42.984;20.336;2023-12-20T14:30:22;153.70;6502.40
55331;DHT22;58851;42.984;20.336;2023-12-20T14:32:48;153.70;6502.40
55331;DHT22;58851;42.984;20.336;2023-12-20T14:35:15;153.60;6502.40
55331;DHT22;58851;42.984;20.336;2023-12-20T14:37:41;128.90;6502.40
55331;DHT22;58851;42.984;20.336;2023-12-20T14:40:08;128.80;6502.40
55331;DHT22;58851;42.984;20.336;2023-12-20T14:42:40;128.60;6502.40
55331;DHT22;58851;42.984;20.336;2023-12-20T14:45:07;128.50;6502.40
55331;DHT22;58851;42.984;20.336;2023-12-20T14:47:34;128.50;6502.40